Sintaluta, Canada
Current Conditions -  °F | °C
As of 5:00 PM on Monday 24 Nov 2014 (Local Time) from CYQR Reporting Station
Blowing Snow Blowing Snow  
Wind Chill: 13°   Ceiling: 1100
Heat Index: 27°   Visibility: 12mi
Dew Point: 23°   Wind: 18mph
Humidity: 86%   Direction: 320°NW
Pressure: 29.93"   Gusts: 28mph
Location:  50.48°N, 103.43°W
Report Text: CYQR 242300Z 32016G24KT 12SM DRSN OVC011 M03/M05 A2993 RMK SC8 SLP174
Loading
Personal Weather Stations






























Interactive Weather Map New forecast layout! Learn more

10-Day Weather Forecast

Advertisements
Track Severe Weather on mobile